createdAt,value
2022-11-10T00:01:00.240Z,98656.63
2022-11-10T00:03:24.084Z,98668.75
2022-11-10T00:05:48.073Z,98668.88
2022-11-10T00:08:14.293Z,98670.66
2022-11-10T00:10:57.117Z,98677.09
2022-11-10T00:13:20.832Z,98676.50
2022-11-10T00:15:59.748Z,98679.84
2022-11-10T00:18:22.926Z,98679.72
2022-11-10T00:20:46.084Z,98687.66
2022-11-10T00:23:09.546Z,98685.44
2022-11-10T00:25:34.614Z,98696.84
2022-11-10T00:28:00.702Z,98689.94
2022-11-10T00:30:23.965Z,98697.91
2022-11-10T00:32:50.950Z,98689.28
2022-11-10T00:35:14.289Z,98689.41
2022-11-10T00:37:37.568Z,98704.03
2022-11-10T00:40:01.516Z,98705.72
2022-11-10T00:42:24.655Z,98704.13
2022-11-10T00:44:48.282Z,98708.81
2022-11-10T00:47:11.489Z,98711.66
2022-11-10T00:49:37.551Z,98716.00
2022-11-10T00:52:01.024Z,98714.31
2022-11-10T00:54:24.482Z,98719.28
2022-11-10T00:56:48.517Z,98716.69
2022-11-10T00:59:12.033Z,98711.19
2022-11-10T01:01:35.387Z,98721.66
2022-11-10T01:03:59.199Z,98713.66
2022-11-10T01:06:25.640Z,98721.38
2022-11-10T01:08:49.632Z,98728.97
2022-11-10T01:11:17.308Z,98728.16
2022-11-10T01:13:40.801Z,98732.66
2022-11-10T01:16:07.195Z,98742.28
2022-11-10T01:18:30.375Z,98743.56
2022-11-10T01:20:54.404Z,98739.31
2022-11-10T01:23:20.808Z,98747.19
2022-11-10T01:25:44.360Z,98749.91
2022-11-10T01:28:07.836Z,98753.47
2022-11-10T01:30:30.967Z,98753.56
2022-11-10T01:32:54.257Z,98759.81
2022-11-10T01:35:18.074Z,98764.50
2022-11-10T01:37:44.224Z,98772.50
2022-11-10T01:40:12.163Z,98784.88
2022-11-10T01:42:52.982Z,98786.88
2022-11-10T01:45:51.497Z,98791.47
2022-11-10T01:48:19.473Z,98789.09
2022-11-10T01:50:44.793Z,98797.84
2022-11-10T01:53:12.395Z,98797.13
2022-11-10T01:55:40.085Z,98795.28
2022-11-10T01:58:03.480Z,98804.75
2022-11-10T02:00:27.094Z,98804.13
2022-11-10T02:02:55.576Z,98802.38
2022-11-10T02:05:19.200Z,98801.47
2022-11-10T02:07:42.769Z,98804.94
2022-11-10T02:10:06.460Z,98801.41
2022-11-10T02:12:40.306Z,98795.38
2022-11-10T02:15:03.477Z,98801.69
2022-11-10T02:17:26.968Z,98797.63
2022-11-10T02:19:50.065Z,98809.22
2022-11-10T02:22:15.863Z,98814.75
2022-11-10T02:24:39.236Z,98818.47
2022-11-10T02:27:02.475Z,98813.38
2022-11-10T02:29:27.100Z,98817.56
2022-11-10T02:31:50.570Z,98819.13
2022-11-10T02:34:14.161Z,98816.50
2022-11-10T02:36:37.378Z,98812.97
2022-11-10T02:39:03.574Z,98826.00
2022-11-10T02:41:27.138Z,98831.28
2022-11-10T02:43:50.887Z,98832.38
2022-11-10T02:46:14.394Z,98832.59
2022-11-10T02:48:37.659Z,98832.78
2022-11-10T02:51:00.787Z,98842.50
2022-11-10T02:53:24.620Z,98843.44
2022-11-10T02:55:50.688Z,98846.00
2022-11-10T02:58:14.167Z,98848.84
2022-11-10T03:00:37.327Z,98858.47
2022-11-10T03:03:02.061Z,98862.91
2022-11-10T03:05:27.597Z,98867.25
2022-11-10T03:07:55.634Z,98868.16
2022-11-10T03:10:19.142Z,98876.88
2022-11-10T03:12:44.906Z,98883.63
2022-11-10T03:15:09.288Z,98886.31
2022-11-10T03:17:32.564Z,98895.03
2022-11-10T03:19:55.933Z,98892.41
2022-11-10T03:22:19.377Z,98882.94
2022-11-10T03:24:42.685Z,98885.53
2022-11-10T03:27:06.246Z,98886.56
2022-11-10T03:29:31.929Z,98890.13
2022-11-10T03:31:55.492Z,98890.91
2022-11-10T03:34:18.752Z,98887.50
2022-11-10T03:36:42.055Z,98891.16
2022-11-10T03:39:05.610Z,98896.41
2022-11-10T03:41:29.299Z,98897.31
2022-11-10T03:43:52.860Z,98900.16
2022-11-10T03:46:19.587Z,98900.97
2022-11-10T03:48:42.825Z,98903.69
2022-11-10T03:51:06.232Z,98905.44
2022-11-10T03:53:29.285Z,98912.41
2022-11-10T03:55:52.648Z,98909.00
2022-11-10T03:58:16.063Z,98927.38
2022-11-10T04:00:39.572Z,98916.97
2022-11-10T04:03:05.512Z,98915.28
2022-11-10T04:05:41.658Z,98919.69
2022-11-10T04:08:17.741Z,98931.91
2022-11-10T04:10:41.282Z,98929.38
2022-11-10T04:13:16.939Z,98937.00
2022-11-10T04:15:46.048Z,98948.34
2022-11-10T04:18:24.943Z,98941.38
2022-11-10T04:20:49.115Z,98942.38
2022-11-10T04:23:24.982Z,98946.69
2022-11-10T04:26:01.120Z,98946.03
2022-11-10T04:28:26.601Z,98959.97
2022-11-10T04:30:50.033Z,98955.66
2022-11-10T04:33:16.160Z,98954.91
2022-11-10T04:35:39.711Z,98947.13
2022-11-10T04:38:03.331Z,98947.13
2022-11-10T04:40:26.732Z,98948.84
2022-11-10T04:42:50.058Z,98965.31
2022-11-10T04:45:14.067Z,98967.84
2022-11-10T04:47:37.206Z,98971.44
2022-11-10T04:50:03.118Z,98977.41
2022-11-10T04:52:26.562Z,98975.81
2022-11-10T04:54:49.690Z,98972.47
2022-11-10T04:57:13.212Z,98973.38
2022-11-10T04:59:36.819Z,98974.91
2022-11-10T05:02:00.212Z,98974.13
2022-11-10T05:04:23.581Z,98978.25
2022-11-10T05:06:49.823Z,98976.31
2022-11-10T05:09:13.399Z,98982.25
2022-11-10T05:11:36.526Z,98981.31
2022-11-10T05:14:00.047Z,98992.50
2022-11-10T05:16:23.479Z,98991.66
2022-11-10T05:18:46.794Z,99004.63
2022-11-10T05:21:10.131Z,99014.16
2022-11-10T05:23:42.078Z,99027.22
2022-11-10T05:26:05.641Z,99029.06
2022-11-10T05:28:29.390Z,99023.94
2022-11-10T05:30:52.787Z,99024.72
2022-11-10T05:33:15.921Z,99021.31
2022-11-10T05:35:39.521Z,99027.41
2022-11-10T05:38:03.070Z,99027.41
2022-11-10T05:40:29.218Z,99023.06
2022-11-10T05:42:54.547Z,99034.34
2022-11-10T05:45:18.421Z,99032.69
2022-11-10T05:47:43.367Z,99041.38
2022-11-10T05:50:08.592Z,99033.78
2022-11-10T05:52:31.655Z,99039.88
2022-11-10T05:54:55.537Z,99048.59
2022-11-10T05:57:21.533Z,99050.38
2022-11-10T05:59:44.962Z,99054.88
2022-11-10T06:02:08.019Z,99065.28
2022-11-10T06:04:31.713Z,99074.00
2022-11-10T06:06:54.882Z,99071.47
2022-11-10T06:09:18.758Z,99070.66
2022-11-10T06:11:44.216Z,99073.31
2022-11-10T06:14:09.773Z,99087.25
2022-11-10T06:16:33.440Z,99083.81
2022-11-10T06:18:56.739Z,99087.47
2022-11-10T06:21:20.104Z,99110.09
2022-11-10T06:23:43.437Z,99118.75
2022-11-10T06:26:06.794Z,99120.47
2022-11-10T06:28:29.908Z,99134.31
2022-11-10T06:30:55.930Z,99148.94
2022-11-10T06:33:19.379Z,99155.25
2022-11-10T06:35:45.019Z,99154.63
2022-11-10T06:38:10.079Z,99150.25
2022-11-10T06:40:34.122Z,99152.78
2022-11-10T06:42:57.658Z,99177.16
2022-11-10T06:45:20.783Z,99182.34
2022-11-10T06:47:46.413Z,99184.88
2022-11-10T06:50:10.808Z,99190.00
2022-11-10T06:52:34.365Z,99208.97
2022-11-10T06:54:57.398Z,99204.72
2022-11-10T06:57:20.714Z,99204.81
2022-11-10T06:59:44.036Z,99213.44
2022-11-10T07:02:07.678Z,99217.69
2022-11-10T07:04:33.782Z,99217.69
2022-11-10T07:06:58.295Z,99223.72
2022-11-10T07:09:21.959Z,99228.06
2022-11-10T07:11:48.480Z,99224.41
2022-11-10T07:14:11.754Z,99227.78
2022-11-10T07:16:35.310Z,99232.84
2022-11-10T07:18:58.548Z,99231.03
2022-11-10T07:21:24.699Z,99225.88
2022-11-10T07:23:48.004Z,99234.53
2022-11-10T07:26:11.351Z,99236.13
2022-11-10T07:28:35.262Z,99242.13
2022-11-10T07:30:58.713Z,99235.09
2022-11-10T07:33:22.262Z,99251.53
2022-11-10T07:35:46.127Z,99254.88
2022-11-10T07:38:14.833Z,99261.75
2022-11-10T07:40:38.899Z,99266.00
2022-11-10T07:43:02.874Z,99256.41
2022-11-10T07:45:26.661Z,99264.78
2022-11-10T07:47:50.355Z,99267.16
2022-11-10T07:50:14.256Z,99262.72
2022-11-10T07:52:37.641Z,99273.13
2022-11-10T07:55:03.398Z,99285.31
2022-11-10T07:57:26.550Z,99294.78
2022-11-10T07:59:52.752Z,99296.41
2022-11-10T08:02:17.541Z,99298.81
2022-11-10T08:04:40.997Z,99305.72
2022-11-10T08:07:05.471Z,99309.78
2022-11-10T08:09:29.127Z,99313.03
2022-11-10T08:11:55.327Z,99303.81
2022-11-10T08:14:18.661Z,99299.88
2022-11-10T08:16:42.049Z,99308.56
2022-11-10T08:19:05.713Z,99322.22
2022-11-10T08:21:31.841Z,99314.13
2022-11-10T08:23:55.321Z,99314.81
2022-11-10T08:26:18.817Z,99323.78
2022-11-10T08:28:44.667Z,99323.53
2022-11-10T08:31:08.316Z,99333.72
2022-11-10T08:33:31.807Z,99328.41
2022-11-10T08:35:55.255Z,99334.28
2022-11-10T08:38:20.120Z,99340.53
2022-11-10T08:40:43.976Z,99346.41
2022-11-10T08:43:09.335Z,99347.13
2022-11-10T08:45:36.117Z,99339.91
2022-11-10T08:47:59.528Z,99335.88
2022-11-10T08:50:22.987Z,99349.63
2022-11-10T08:52:46.982Z,99349.22
2022-11-10T08:55:11.237Z,99347.41
2022-11-10T08:57:34.337Z,99358.63
2022-11-10T08:59:57.775Z,99353.66
2022-11-10T09:02:23.750Z,99351.13
2022-11-10T09:04:46.949Z,99359.06
2022-11-10T09:07:10.377Z,99358.13
2022-11-10T09:09:33.636Z,99359.00
2022-11-10T09:11:56.960Z,99364.25
2022-11-10T09:14:20.396Z,99368.66
2022-11-10T09:16:43.882Z,99381.63
2022-11-10T09:19:10.940Z,99374.81
2022-11-10T09:21:36.461Z,99399.19
2022-11-10T09:23:59.790Z,99391.38
2022-11-10T09:26:23.094Z,99405.19
2022-11-10T09:28:46.341Z,99413.09
2022-11-10T09:31:09.871Z,99418.38
2022-11-10T09:33:32.983Z,99434.00
2022-11-10T09:36:02.892Z,99431.50
2022-11-10T09:38:26.270Z,99441.91
2022-11-10T09:41:02.594Z,99430.47
2022-11-10T09:43:32.008Z,99437.47
2022-11-10T09:46:00.693Z,99437.19
2022-11-10T09:48:29.145Z,99439.03
2022-11-10T09:50:58.384Z,99457.91
2022-11-10T09:53:27.589Z,99455.75
2022-11-10T09:55:54.909Z,99460.06
2022-11-10T09:58:19.396Z,99455.44
2022-11-10T10:00:45.313Z,99445.63
2022-11-10T10:03:09.083Z,99445.63
2022-11-10T10:05:51.720Z,99441.06
2022-11-10T10:08:22.922Z,99438.06
2022-11-10T10:10:54.416Z,99430.41
2022-11-10T10:13:31.255Z,99435.41
2022-11-10T10:16:09.062Z,99433.97
2022-11-10T10:18:41.756Z,99431.94
2022-11-10T10:21:25.407Z,99422.88
2022-11-10T10:24:12.802Z,99424.00
2022-11-10T10:26:42.919Z,99416.00
2022-11-10T10:29:13.061Z,99414.94
2022-11-10T10:31:38.519Z,99417.25
2022-11-10T10:34:01.840Z,99424.53
2022-11-10T10:36:27.225Z,99427.34
2022-11-10T10:38:54.012Z,99423.63
2022-11-10T10:41:24.097Z,99432.81
2022-11-10T10:43:53.005Z,99418.72
2022-11-10T10:46:20.329Z,99412.66
2022-11-10T10:48:43.397Z,99414.88
2022-11-10T10:51:06.906Z,99406.44
2022-11-10T10:53:30.595Z,99410.94
2022-11-10T10:56:01.813Z,99405.66
2022-11-10T10:58:28.791Z,99403.94
2022-11-10T11:00:58.241Z,99405.53
2022-11-10T11:03:31.528Z,99417.88
2022-11-10T11:06:06.245Z,99407.28
2022-11-10T11:08:29.832Z,99398.59
2022-11-10T11:10:52.947Z,99406.28
2022-11-10T11:13:18.421Z,99399.72
2022-11-10T11:15:41.682Z,99402.94
2022-11-10T11:18:15.908Z,99402.69
2022-11-10T11:20:51.192Z,99400.81
2022-11-10T11:23:30.073Z,99404.09
2022-11-10T11:25:56.659Z,99406.25
2022-11-10T11:28:29.192Z,99399.66
2022-11-10T11:31:07.097Z,99397.75
2022-11-10T11:33:39.259Z,99393.03
2022-11-10T11:36:11.331Z,99385.66
2022-11-10T11:38:37.307Z,99372.75
2022-11-10T11:41:15.724Z,99368.47
2022-11-10T11:44:03.545Z,99384.03
2022-11-10T11:46:34.326Z,99385.25
2022-11-10T11:49:18.847Z,99377.88
2022-11-10T11:51:48.970Z,99375.47
2022-11-10T11:54:30.314Z,99372.19
2022-11-10T11:57:02.512Z,99379.53
2022-11-10T11:59:39.972Z,99374.50
2022-11-10T12:02:25.260Z,99360.69
2022-11-10T12:04:58.237Z,99357.53
2022-11-10T12:07:35.702Z,99361.25
2022-11-10T12:10:07.047Z,99357.03
2022-11-10T12:13:01.758Z,99367.88
2022-11-10T12:15:31.834Z,99366.47
2022-11-10T12:18:06.171Z,99357.75
2022-11-10T12:20:42.878Z,99371.78
2022-11-10T12:23:15.076Z,99369.78
2022-11-10T12:25:49.655Z,99368.00
2022-11-10T12:28:18.822Z,99363.53
2022-11-10T12:30:44.787Z,99366.94
2022-11-10T12:33:17.107Z,99367.06
2022-11-10T12:35:49.113Z,99368.13
2022-11-10T12:38:19.650Z,99365.81
2022-11-10T12:40:51.073Z,99367.69
2022-11-10T12:43:21.836Z,99369.50
2022-11-10T12:45:48.625Z,99368.09
2022-11-10T12:48:14.118Z,99371.44
2022-11-10T12:50:47.366Z,99366.31
2022-11-10T12:53:17.573Z,99376.16
2022-11-10T12:55:45.624Z,99380.09
2022-11-10T12:58:10.084Z,99381.09
2022-11-10T13:00:35.427Z,99378.59
2022-11-10T13:02:59.589Z,99379.94
2022-11-10T13:05:42.164Z,99384.56
2022-11-10T13:08:27.495Z,99383.22
2022-11-10T13:11:10.561Z,99386.78
2022-11-10T13:13:44.436Z,99394.53
2022-11-10T13:16:08.729Z,99390.00
2022-11-10T13:18:58.804Z,99396.78
2022-11-10T13:21:57.155Z,99394.19
2022-11-10T13:24:27.920Z,99396.19
2022-11-10T13:26:54.280Z,99404.63
2022-11-10T13:29:37.525Z,99390.34
2022-11-10T13:32:02.396Z,99389.03
2022-11-10T13:34:33.781Z,99380.25
2022-11-10T13:36:57.661Z,99376.84
2022-11-10T13:39:30.403Z,99386.84
2022-11-10T13:41:56.006Z,99385.75
2022-11-10T13:44:27.909Z,99382.94
2022-11-10T13:47:07.393Z,99389.84
2022-11-10T13:49:43.559Z,99384.34
2022-11-10T13:52:16.751Z,99389.63
2022-11-10T13:55:16.501Z,99394.06
2022-11-10T13:57:42.045Z,99398.31
2022-11-10T14:00:26.181Z,99404.03
2022-11-10T14:02:57.727Z,99414.03
2022-11-10T14:06:04.041Z,99406.94
2022-11-10T14:08:32.075Z,99418.16
2022-11-10T14:11:01.624Z,99422.53
2022-11-10T14:13:31.350Z,99428.06
2022-11-10T14:15:56.953Z,99431.84
2022-11-10T14:18:25.102Z,99434.75
2022-11-10T14:20:50.357Z,99424.63
2022-11-10T14:23:22.709Z,99434.16
2022-11-10T14:25:47.984Z,99425.41
2022-11-10T14:28:28.034Z,99431.50
2022-11-10T14:30:54.683Z,99438.44
2022-11-10T14:33:18.129Z,99438.47
2022-11-10T14:35:51.316Z,99440.31
2022-11-10T14:38:22.175Z,99438.22
2022-11-10T14:40:46.199Z,99446.19
2022-11-10T14:43:31.089Z,99450.44
2022-11-10T14:45:55.207Z,99444.09
2022-11-10T14:48:21.772Z,99450.38
2022-11-10T14:50:48.553Z,99454.03
2022-11-10T14:53:22.246Z,99462.81
2022-11-10T14:55:53.380Z,99465.53
2022-11-10T14:58:24.143Z,99477.03
2022-11-10T15:00:50.779Z,99479.09
2022-11-10T15:03:20.189Z,99487.28
2022-11-10T15:05:44.120Z,99487.50
2022-11-10T15:08:08.684Z,99492.75
2022-11-10T15:10:48.614Z,99495.66
2022-11-10T15:13:22.937Z,99501.72
2022-11-10T15:15:46.375Z,99510.63
2022-11-10T15:18:27.160Z,99508.91
2022-11-10T15:21:02.892Z,99510.88
2022-11-10T15:23:33.936Z,99516.28
2022-11-10T15:25:58.024Z,99521.44
2022-11-10T15:28:29.732Z,99518.94
2022-11-10T15:30:55.141Z,99528.63
2022-11-10T15:33:27.324Z,99526.00
2022-11-10T15:35:50.757Z,99520.88
2022-11-10T15:38:34.540Z,99527.78
2022-11-10T15:41:15.131Z,99533.09
2022-11-10T15:43:38.398Z,99535.81
2022-11-10T15:46:05.135Z,99535.81
2022-11-10T15:48:38.359Z,99534.22
2022-11-10T15:51:01.910Z,99532.59
2022-11-10T15:53:30.801Z,99536.13
2022-11-10T15:55:54.432Z,99532.75
2022-11-10T15:58:20.191Z,99534.59
2022-11-10T16:00:43.739Z,99537.25
2022-11-10T16:03:07.632Z,99542.53
2022-11-10T16:05:33.722Z,99547.84
2022-11-10T16:07:57.165Z,99545.50
2022-11-10T16:10:20.606Z,99555.97
2022-11-10T16:12:43.741Z,99559.56
2022-11-10T16:15:08.026Z,99571.06
2022-11-10T16:17:31.574Z,99570.31
2022-11-10T16:19:55.228Z,99577.38
2022-11-10T16:22:21.309Z,99579.16
2022-11-10T16:24:45.118Z,99584.50
2022-11-10T16:27:10.201Z,99589.81
2022-11-10T16:29:34.558Z,99592.47
2022-11-10T16:31:57.999Z,99589.91
2022-11-10T16:34:21.310Z,99590.94
2022-11-10T16:36:46.340Z,99588.53
2022-11-10T16:39:17.387Z,99605.09
2022-11-10T16:41:41.499Z,99604.41
2022-11-10T16:44:04.546Z,99602.69
2022-11-10T16:46:31.028Z,99596.63
2022-11-10T16:48:55.519Z,99601.91
2022-11-10T16:51:19.413Z,99589.84
2022-11-10T16:53:44.172Z,99598.53
2022-11-10T16:56:14.995Z,99602.88
2022-11-10T16:58:38.572Z,99608.19
2022-11-10T17:01:03.849Z,99612.56
2022-11-10T17:03:32.457Z,99612.66
2022-11-10T17:05:56.501Z,99620.69
2022-11-10T17:08:27.201Z,99620.78
2022-11-10T17:10:50.569Z,99630.56
2022-11-10T17:13:16.665Z,99634.94
2022-11-10T17:15:40.264Z,99640.22
2022-11-10T17:18:07.524Z,99641.09
2022-11-10T17:20:37.888Z,99637.63
2022-11-10T17:23:03.021Z,99636.88
2022-11-10T17:25:29.300Z,99648.25
2022-11-10T17:27:52.844Z,99651.81
2022-11-10T17:30:19.503Z,99654.41
2022-11-10T17:33:04.069Z,99655.31
2022-11-10T17:35:26.936Z,99660.59
2022-11-10T17:37:55.126Z,99668.47
2022-11-10T17:40:22.442Z,99665.94
2022-11-10T17:42:48.637Z,99658.06
2022-11-10T17:45:22.441Z,99652.81
2022-11-10T17:47:46.521Z,99649.38
2022-11-10T17:50:11.052Z,99652.84
2022-11-10T17:52:34.348Z,99654.66
2022-11-10T17:54:57.631Z,99646.00
2022-11-10T17:57:21.149Z,99651.22
2022-11-10T17:59:44.164Z,99645.16
2022-11-10T18:02:13.617Z,99653.00
2022-11-10T18:04:37.042Z,99653.09
2022-11-10T18:07:00.433Z,99657.53
2022-11-10T18:09:24.489Z,99653.28
2022-11-10T18:11:48.264Z,99658.63
2022-11-10T18:14:14.259Z,99663.94
2022-11-10T18:16:37.725Z,99671.84
2022-11-10T18:19:04.172Z,99668.47
2022-11-10T18:21:27.576Z,99670.25
2022-11-10T18:23:51.202Z,99678.09
2022-11-10T18:26:14.809Z,99673.75
2022-11-10T18:28:38.735Z,99670.28
2022-11-10T18:31:07.652Z,99673.78
2022-11-10T18:33:31.140Z,99675.56
2022-11-10T18:36:01.256Z,99670.34
2022-11-10T18:38:24.646Z,99682.56
2022-11-10T18:40:48.235Z,99685.19
2022-11-10T18:43:11.940Z,99690.44
2022-11-10T18:45:35.513Z,99689.59
2022-11-10T18:48:03.728Z,99700.00
2022-11-10T18:50:26.937Z,99698.25
2022-11-10T18:52:52.831Z,99700.00
2022-11-10T18:55:16.397Z,99709.63
2022-11-10T18:57:40.490Z,99708.84
2022-11-10T19:00:04.943Z,99716.69
2022-11-10T19:02:28.543Z,99713.22
2022-11-10T19:04:53.790Z,99716.66
2022-11-10T19:07:17.719Z,99726.25
2022-11-10T19:09:44.412Z,99734.91
2022-11-10T19:12:07.854Z,99733.16
2022-11-10T19:14:31.185Z,99730.53
2022-11-10T19:16:54.749Z,99726.19
2022-11-10T19:19:17.983Z,99731.41
2022-11-10T19:21:42.398Z,99731.38
2022-11-10T19:24:06.022Z,99728.75
2022-11-10T19:26:32.936Z,99733.09
2022-11-10T19:28:57.565Z,99724.44
2022-11-10T19:31:23.060Z,99727.06
2022-11-10T19:33:48.674Z,99727.97
2022-11-10T19:36:14.240Z,99728.06
2022-11-10T19:38:38.497Z,99740.31
2022-11-10T19:41:05.497Z,99747.31
2022-11-10T19:43:32.404Z,99757.81
2022-11-10T19:45:56.174Z,99765.59
2022-11-10T19:48:19.618Z,99766.44
2022-11-10T19:50:49.182Z,99763.00
2022-11-10T19:53:12.987Z,99761.25
2022-11-10T19:55:36.996Z,99761.28
2022-11-10T19:58:00.456Z,99758.72
2022-11-10T20:00:26.277Z,99761.38
2022-11-10T20:02:49.802Z,99761.47
2022-11-10T20:05:16.473Z,99778.00
2022-11-10T20:07:52.594Z,99786.72
2022-11-10T20:10:15.844Z,99778.97
2022-11-10T20:12:39.423Z,99778.13
2022-11-10T20:15:03.044Z,99775.59
2022-11-10T20:17:29.326Z,99769.56
2022-11-10T20:19:52.844Z,99786.97
2022-11-10T20:22:16.267Z,99787.78
2022-11-10T20:24:39.743Z,99793.78
2022-11-10T20:27:03.188Z,99782.53
2022-11-10T20:29:26.643Z,99788.63
2022-11-10T20:31:49.889Z,99788.63
2022-11-10T20:34:15.854Z,99787.72
2022-11-10T20:36:39.200Z,99790.38
2022-11-10T20:39:02.803Z,99793.00
2022-11-10T20:41:28.471Z,99787.00
2022-11-10T20:43:52.191Z,99781.81
2022-11-10T20:49:01.210Z,99775.03
2022-11-10T20:51:27.277Z,99771.59
2022-11-10T20:53:51.117Z,99783.72
2022-11-10T20:56:15.986Z,99784.63
2022-11-10T20:58:40.075Z,99784.63
2022-11-10T21:01:07.982Z,99787.22
2022-11-10T21:03:33.072Z,99792.47
2022-11-10T21:05:57.177Z,99788.19
2022-11-10T21:08:23.450Z,99789.94
2022-11-10T21:10:52.930Z,99796.03
2022-11-10T21:13:13.428Z,99794.41
2022-11-10T21:15:40.970Z,99797.03
2022-11-10T21:18:04.592Z,99803.22
2022-11-10T21:20:27.689Z,99801.53
2022-11-10T21:22:51.070Z,99805.88
2022-11-10T21:25:18.902Z,99809.44
2022-11-10T21:27:43.553Z,99814.69
2022-11-10T21:30:11.477Z,99815.59
2022-11-10T21:32:37.534Z,99809.56
2022-11-10T21:35:00.989Z,99806.13
2022-11-10T21:37:25.823Z,99804.41
2022-11-10T21:39:49.933Z,99816.53
2022-11-10T21:42:15.984Z,99807.91
2022-11-10T21:44:39.454Z,99813.13
2022-11-10T21:47:02.560Z,99807.06
2022-11-10T21:49:25.868Z,99799.31
2022-11-10T21:51:48.981Z,99805.38
2022-11-10T21:54:13.281Z,99804.53
2022-11-10T21:56:36.758Z,99799.41
2022-11-10T21:59:03.273Z,99805.47
2022-11-10T22:01:27.083Z,99806.41
2022-11-10T22:03:50.594Z,99807.28
2022-11-10T22:06:15.951Z,99810.72
2022-11-10T22:08:40.745Z,99824.59
2022-11-10T22:11:16.368Z,99822.00
2022-11-10T22:13:52.180Z,99823.72
2022-11-10T22:16:36.589Z,99823.72
2022-11-10T22:18:59.734Z,99824.63
2022-11-10T22:21:22.928Z,99816.84
2022-11-10T22:23:58.706Z,99820.31
2022-11-10T22:26:22.139Z,99822.03
2022-11-10T22:28:45.789Z,99822.03
2022-11-10T22:31:11.137Z,99825.50
2022-11-10T22:33:39.039Z,99821.19
2022-11-10T22:36:02.989Z,99816.91
2022-11-10T22:38:26.008Z,99818.63
2022-11-10T22:41:01.860Z,99828.13
2022-11-10T22:43:37.481Z,99825.56
2022-11-10T22:46:01.193Z,99821.25
2022-11-10T22:48:31.367Z,99824.69
2022-11-10T22:51:01.243Z,99829.88
2022-11-10T22:53:25.179Z,99827.31
2022-11-10T22:55:48.871Z,99823.91
2022-11-10T22:58:12.565Z,99816.09
2022-11-10T23:00:36.138Z,99816.97
2022-11-10T23:02:59.488Z,99817.00
2022-11-10T23:05:22.884Z,99817.88
2022-11-10T23:07:48.940Z,99820.44
2022-11-10T23:10:12.531Z,99823.09
2022-11-10T23:12:36.036Z,99823.09
2022-11-10T23:14:59.420Z,99821.34
2022-11-10T23:17:23.229Z,99811.84
2022-11-10T23:19:46.682Z,99812.75
2022-11-10T23:22:10.122Z,99816.25
2022-11-10T23:24:36.183Z,99819.75
2022-11-10T23:26:59.792Z,99815.47
2022-11-10T23:29:22.972Z,99812.88
2022-11-10T23:31:46.252Z,99809.41
2022-11-10T23:34:09.830Z,99805.13
2022-11-10T23:36:33.195Z,99798.19
2022-11-10T23:38:57.745Z,99802.59
2022-11-10T23:41:26.228Z,99804.31
2022-11-10T23:43:50.290Z,99815.56
2022-11-10T23:46:13.763Z,99819.03
2022-11-10T23:48:37.192Z,99825.91
2022-11-10T23:51:00.358Z,99824.16
2022-11-10T23:53:24.123Z,99823.31
2022-11-10T23:55:48.905Z,99829.38
2022-11-10T23:58:15.146Z,99838.03
